Texas Logo

Spring, TX Single Family Real Estate Listings

1588 Total Real Estate Listings * Click on table heading to sort
Date Posted Property Type Style Address Price Living Area Lot Size Price/Sq Ft.
2017-03-23 Single Family Traditional 19931 Standing Cypress Dr Spring, TX 77379 $547,000 4,514 sq. ft. 12,197 sq. ft. $121
2017-03-23 Single Family Traditional 16715 Mackenzie Mesa Dr Spring, TX 77379 $200,000 1,957 sq. ft. 10,019 sq. ft. $102
2017-03-23 Single Family Traditional 29910 Sunwillow Creek Dr Spring, TX 77386 $229,900 2,463 sq. ft. 6,098 sq. ft. $93
2017-03-23 Single Family Traditional 23606 Rustic Oak Ct Spring, TX 77373 $195,000 2,869 sq. ft. 10,890 sq. ft. $68
2017-03-22 Single Family Traditional 19 Nagshead Pl Spring, TX 77389 $314,000 2,587 sq. ft. 7,405 sq. ft. $121
2017-03-22 Single Family Traditional 3523 Bakerswood Dr Spring, TX 77386 $219,999 2,512 sq. ft. 5,663 sq. ft. $88
2017-03-22 Single Family Traditional 4923 Adonis Dr Spring, TX 77373 $130,000 1,477 sq. ft. 6,534 sq. ft. $88
2017-03-22 Single Family Traditional 23519 Creekview Dr Spring, TX 77389 $437,700 4,669 sq. ft. 20,038 sq. ft. $94
2017-03-22 Single Family Traditional 2514 Spring Day Ct Spring, TX 77373 $149,900 1,772 sq. ft. 11,761 sq. ft. $85
2017-03-22 Single Family Traditional 24610 Creekview Dr Spring, TX 77389 $448,888 4,013 sq. ft. 11,761 sq. ft. $112
2017-03-22 Single Family Ranch; Traditional 27 Grand Bayou Place Spring, TX 77382 $219,900 1,864 sq. ft. 9,583 sq. ft. $118
2017-03-22 Single Family Mediterranean 25726 Muirfield Bend Ct Spring, TX 77389 $439,000 2,597 sq. ft. 10,019 sq. ft. $169
2017-03-22 Single Family Traditional 2707 Wisteria Walk Spring, TX 77388 $239,900 2,739 sq. ft. $88
2017-03-22 Single Family Traditional 17407 Fairway Oaks Dr Spring, TX 77379 $192,000 2,438 sq. ft. 17,860 sq. ft. $79
2017-03-22 Single Family Traditional 25211 Metzler Creek Dr Spring, TX 77389 $499,900 4,311 sq. ft. 15,682 sq. ft. $116
2017-03-22 Single Family Traditional 21527 Lozar Dr Spring, TX 77379 $260,000 2,376 sq. ft. 6,534 sq. ft. $109
2017-03-22 Single Family Traditional 21130 Coldde Meadow Ln Spring, TX 77379 $264,900 2,231 sq. ft. 6,970 sq. ft. $119
2017-03-22 Single Family Traditional 5918 Vinland Shores Ct Spring, TX 77379 $279,000 2,529 sq. ft. 6,534 sq. ft. $110
2017-03-22 Single Family Traditional 5455 Harvest Oak Landing Dr Spring, TX 77386 $588,650 3,660 sq. ft. 22,216 sq. ft. $161
2017-03-22 Single Family Traditional 6210 Darby Way Spring, TX 77389 $349,000 3,271 sq. ft. 16,553 sq. ft. $107
2017-03-22 Single Family Traditional 6927 Windy Pines Dr Spring, TX 77379 $174,500 2,129 sq. ft. 6,970 sq. ft. $82
2017-03-22 Single Family Ranch 4407 Monteith Dr Spring, TX 77373 $139,500 1,644 sq. ft. 6,534 sq. ft. $85
2017-03-22 Single Family Traditional 23319 Berry Pine Dr Spring, TX 77373 $134,900 1,735 sq. ft. 9,583 sq. ft. $78
2017-03-22 Single Family Traditional 4802 Fitzwater Dr Spring, TX 77373 $120,000 1,651 sq. ft. 10,019 sq. ft. $73
2017-03-22 Single Family Traditional 25418 Avery Hill Ln Spring, TX 77373 $149,000 2,079 sq. ft. 11,761 sq. ft. $72
2017-03-22 Single Family Contemporary/Modern 3774 Paladera Place Ct Spring, TX 77386 $269,900 2,513 sq. ft. 6,098 sq. ft. $107
2017-03-22 Single Family Traditional 17818 Mellow Ridge Dr Spring, TX 77379 $165,000 1,897 sq. ft. 10,890 sq. ft. $87
2017-03-22 Single Family Traditional 3206 Candleknoll Dr Spring, TX 77388 $257,500 2,964 sq. ft. 9,583 sq. ft. $87
2017-03-22 Single Family Traditional 6227 Cash Oaks Dr Spring, TX 77379 $389,900 3,567 sq. ft. 6,534 sq. ft. $109
2017-03-22 Single Family Traditional 20918 Summer Trace Ln Spring, TX 77379 $235,000 2,338 sq. ft. 8,712 sq. ft. $101
2017-03-22 Single Family Traditional 22318 Highlandgate Dr Spring, TX 77373 $100,000 1,762 sq. ft. 9,148 sq. ft. $57
2017-03-22 Single Family Split Level 3542 Nutwood Ln Spring, TX 77389 $175,000 2,254 sq. ft. 7,405 sq. ft. $78
2017-03-22 Single Family Traditional 2602 Streeter Ln Spring, TX 77388 $850,000 5,378 sq. ft. 14,810 sq. ft. $158
2017-03-22 Single Family Traditional 3302 La Mer Lane Spring, TX 77388 $229,900 2,593 sq. ft. 9,583 sq. ft. $89
2017-03-22 Single Family Traditional 7402 Nicholforest Ln Spring, TX 77389 $234,900 2,731 sq. ft. 11,326 sq. ft. $86
2017-03-22 Single Family Traditional 9531 Thurber Ridge Dr Spring, TX 77379 $299,900 3,078 sq. ft. 6,970 sq. ft. $97
2017-03-22 Single Family Traditional 2307 Morgan Ridge Ln Spring, TX 77386 $195,000 1,657 sq. ft. 5,663 sq. ft. $118
2017-03-22 Single Family Traditional 23122 Burcan Ct Spring, TX 77373 $240,000 2,918 sq. ft. 7,405 sq. ft. $82
2017-03-22 Single Family Contemporary/Modern; Traditional 19714 Auburn Park Ln Spring, TX 77379 $164,900 1,662 sq. ft. 6,098 sq. ft. $99
2017-03-22 Single Family Traditional 24026 Willow Rose Dr Spring, TX 77389 $358,000 2,371 sq. ft. 7,405 sq. ft. $151
2017-03-22 Single Family Colonial 17207 Kettle Creek Dr Spring, TX 77379 $1,500 1,850 sq. ft. $1
2017-03-22 Single Family Traditional 25406 Stone Mill Ln Spring, TX 77373 $180,000 1,864 sq. ft. 19,602 sq. ft. $97
2017-03-22 Single Family Traditional 3703 Teaberry Ln Spring, TX 77389 $164,450 1,721 sq. ft. 6,970 sq. ft. $96
2017-03-21 Single Family Traditional 3611 Bluebonnet Trace Dr Spring, TX 77386 $449,000 4,229 sq. ft. 7,841 sq. ft. $106
2017-03-21 Single Family Traditional 30415 Tynham Springs Dr Spring, TX 77386 $229,900 3,285 sq. ft. 7,405 sq. ft. $70
2017-03-21 Single Family Traditional 21711 Glenbranch Dr Spring, TX 77388 $159,900 1,702 sq. ft. 11,761 sq. ft. $94
2017-03-21 Single Family Contemporary/Modern 1011 Kingbriar Ct Spring, TX 77373 $166,500 2,215 sq. ft. 10,019 sq. ft. $75
2017-03-21 Single Family Traditional 5835 Flower Gate Dr Spring, TX 77373 $132,990 1,864 sq. ft. 6,098 sq. ft. $71
2017-03-21 Single Family Traditional 2415 Peaceful Valley Dr Spring, TX 77373 $149,900 1,674 sq. ft. 7,841 sq. ft. $90
2017-03-21 Single Family Other Style 7611 Morgans Pond Court Spring, TX 77389 $1,299,000 5,517 sq. ft. 20,473 sq. ft. $235
2017-03-21 Single Family Traditional 21814 Glade Canyon Drive Spring, TX 77388 $255,000 3,135 sq. ft. 6,970 sq. ft. $81
2017-03-21 Single Family Traditional 3318 Hickory Hollow Rd Spring, TX 77380 $162,900 1,451 sq. ft. 12,197 sq. ft. $112
2017-03-21 Single Family Traditional 2102 Sekola Spring, TX 77386 $170,000 1,586 sq. ft. 7,405 sq. ft. $107
2017-03-21 Single Family Traditional 19517 Doerre Rd Spring, TX 77379 $589,500 3,646 sq. ft. 217,800 sq. ft. $162
2017-03-21 Single Family Traditional 803 Spring Source Pl Spring, TX 77373 $319,900 3,375 sq. ft. 8,276 sq. ft. $95
2017-03-21 Single Family Traditional 23831 Pennington Hills Drive Spring, TX 77389 $230,996 2,354 sq. ft. 5,227 sq. ft. $98
2017-03-21 Single Family Traditional 6 Regan Ct Spring, TX 77382 $584,900 3,581 sq. ft. 15,682 sq. ft. $163
2017-03-21 Single Family Traditional 3805 Juniper Meadows Spring, TX 77386 $406,528 3,364 sq. ft. 9,583 sq. ft. $121
2017-03-21 Single Family Traditional 6034 Craigway Spring, TX 77389 $465,000 3,939 sq. ft. 16,988 sq. ft. $118
2017-03-21 Single Family Ranch 22835 Millgate Dr Spring, TX 77373 $145,000 1,525 sq. ft. 6,098 sq. ft. $95
2017-03-21 Single Family Traditional 4927 Tealgate Dr Spring, TX 77373 $139,500 1,411 sq. ft. 6,098 sq. ft. $99
2017-03-21 Single Family Traditional 23943 English Oak Dr Spring, TX 77373 $149,000 1,668 sq. ft. 7,405 sq. ft. $89
2017-03-21 Single Family Contemporary/Modern 8034 Louise Oak Ct Spring, TX 77379 $198,000 2,300 sq. ft. 4,792 sq. ft. $86
2017-03-21 Single Family Traditional 24615 Kingscrest Cir Spring, TX 77389 $480,000 5,656 sq. ft. 13,068 sq. ft. $85
2017-03-21 Single Family Traditional 23225 Prairie Bird Dr Spring, TX 77373 $109,989 1,092 sq. ft. 4,356 sq. ft. $101
2017-03-21 Single Family Traditional 7507 Augusta Creek Spring, TX 77389 $415,000 2,786 sq. ft. $149
2017-03-21 Single Family Traditional 7927 Augusta Creek Spring, TX 77389 $413,319 2,786 sq. ft. $148
2017-03-21 Single Family Traditional 723 New Pines Dr Spring, TX 77373 $199,990 3,138 sq. ft. 6,098 sq. ft. $64
2017-03-21 Single Family Traditional 4810 San Jacinto River Drive Spring, TX 77386 $162,500 1,609 sq. ft. 6,098 sq. ft. $101
2017-03-21 Single Family Traditional 21714 Marle Point Ct Spring, TX 77388 $289,900 3,348 sq. ft. 6,534 sq. ft. $87
2017-03-21 Single Family Traditional 6615 Rippling Hollow Dr Spring, TX 77379 $223,900 2,468 sq. ft. 11,761 sq. ft. $91
2017-03-21 Single Family Traditional 18715 Candle Park Dr Spring, TX 77388 $195,000 1,889 sq. ft. 5,227 sq. ft. $103
2017-03-20 Single Family Traditional 22922 Millgate Dr Spring, TX 77373 $124,900 1,525 sq. ft. 11,326 sq. ft. $82
2017-03-20 Single Family Traditional 23802 Verngate Spring, TX 77373 $128,000 1,678 sq. ft. 8,276 sq. ft. $76
2017-03-20 Single Family Traditional 30622 Woodson Trace Spring, TX 77386 $245,000 2,674 sq. ft. 5,227 sq. ft. $92
2017-03-20 Single Family Traditional 1315 Alexandra Park Dr Spring, TX 77379 $369,999 3,126 sq. ft. 7,841 sq. ft. $118
2017-03-20 Single Family Mediterranean 73 Shadow Creek Ridge Dr Spring, TX 77389 $625,000 3,614 sq. ft. 8,276 sq. ft. $173
2017-03-20 Single Family Traditional 7426 Fairview Glen Dr Spring, TX 77389 $244,000 2,457 sq. ft. 6,098 sq. ft. $99
2017-03-20 Single Family Traditional 7923 Augusta Spring, TX 77389 $410,000 3,465 sq. ft. $118
2017-03-20 Single Family Traditional 1019 Lieren Ln Spring, TX 77373 $145,000 2,395 sq. ft. 6,098 sq. ft. $61
2017-03-20 Single Family Traditional 79 Buck Trail Pl Spring, TX 77389 $359,900 2,929 sq. ft. 10,019 sq. ft. $123
2017-03-20 Single Family Traditional 5019 Fox Hollow Blvd Spring, TX 77389 $155,000 1,415 sq. ft. 7,841 sq. ft. $110
2017-03-20 Single Family Traditional 23207 Pine Post Ln Spring, TX 77373 $109,995 1,700 sq. ft. 6,098 sq. ft. $65
2017-03-20 Single Family Traditional 7014 Arbor Rose Ln Spring, TX 77379 $284,900 3,203 sq. ft. 6,970 sq. ft. $89
2017-03-20 Single Family Traditional 2119 Beacon Park Ct Spring, TX 77373 $179,500 2,448 sq. ft. 5,227 sq. ft. $73
2017-03-20 Single Family Traditional 2519 Deasa Dr Spring, TX 77373 $185,000 2,368 sq. ft. 8,276 sq. ft. $78
2017-03-20 Single Family Traditional 2914 Peachstone Pl Spring, TX 77389 $145,250 1,392 sq. ft. 4,792 sq. ft. $104
2017-03-20 Single Family Traditional 29603 Legends Pine Ln Spring, TX 77386 $235,000 3,346 sq. ft. 7,405 sq. ft. $70
2017-03-20 Single Family Ranch 21523 Slippery Creek Ln Spring, TX 77388 $159,900 1,502 sq. ft. 6,970 sq. ft. $106
2017-03-20 Single Family English 7 Hedgedale Way Spring, TX 77389 $582,701 3,496 sq. ft. 10,019 sq. ft. $167
2017-03-20 Single Family Traditional 17903 Pleasantglen Ct Spring, TX 77379 $399,000 7,841 sq. ft.
2017-03-20 Single Family Traditional 5515 Fellowship Pine Cir Spring, TX 77379 $845,000 7,778 sq. ft. 38,333 sq. ft. $109
2017-03-20 Single Family Traditional 23215 Tree Bright Ln Spring, TX 77373 $139,900 1,708 sq. ft. 6,098 sq. ft. $82
2017-03-19 Single Family Traditional 18730 White Candle Dr Spring, TX 77388 $225,000 2,903 sq. ft. 9,583 sq. ft. $78
2017-03-19 Single Family Traditional 16414 Kleinwood Dr Spring, TX 77379 $189,900 2,289 sq. ft. 9,583 sq. ft. $83
2017-03-19 Single Family Traditional 24515 Jenns Creek Ct Spring, TX 77389 $409,000 3,248 sq. ft. 7,841 sq. ft. $126
2017-03-19 Single Family Traditional 9322 Towerstone Drive Spring, TX 77379 $164,500 1,808 sq. ft. 7,841 sq. ft. $91
2017-03-18 Single Family Traditional 6711 Imperial Leaf Ln Spring, TX 77379 $279,900 3,269 sq. ft. 8,276 sq. ft. $86
2017-03-18 Single Family Traditional 21014 Florette Ln Spring, TX 77388 $260,000 3,883 sq. ft. 6,970 sq. ft. $67
2017-03-18 Single Family Traditional 214 Baywood Ct Spring, TX 77386 $189,525 1,712 sq. ft. 16,117 sq. ft. $111
2017-03-18 Single Family Contemporary/Modern 2106 Louetta Spring Dr Spring, TX 77388 $199,999 2,039 sq. ft. 6,534 sq. ft. $98
2017-03-18 Single Family Traditional 22506 Leafygate Dr Spring, TX 77373 $125,000 1,668 sq. ft. 8,276 sq. ft. $75
2017-03-17 Single Family Traditional 18702 Richland Falls Ln Spring, TX 77379 $229,900 2,306 sq. ft. 7,405 sq. ft. $100
2017-03-17 Single Family Traditional 29626 Legends Line Dr Spring, TX 77386 $187,900 2,018 sq. ft. 6,534 sq. ft. $93
2017-03-17 Single Family Contemporary/Modern; Traditional 2507 Spring Day Ct Spring, TX 77373 $165,000 1,308 sq. ft. 6,970 sq. ft. $126
2017-03-17 Single Family Traditional 1427 Eden Meadows Dr Spring, TX 77386 $295,000 2,996 sq. ft. 7,405 sq. ft. $98
2017-03-17 Single Family Traditional 3742 Blaine Oaks Ln Spring, TX 77386 $264,200 2,476 sq. ft. 6,098 sq. ft. $107
2017-03-17 Single Family Traditional 1030 Spring Heights Dr Spring, TX 77373 $179,900 3,129 sq. ft. 7,405 sq. ft. $57
2017-03-17 Single Family Traditional 23830 Leblanc Landing Dr Spring, TX 77389 $330,000 3,754 sq. ft. 8,276 sq. ft. $88
2017-03-17 Single Family Traditional 24615 Fort Timbers Ct Spring, TX 77373 $245,000 3,020 sq. ft. 9,583 sq. ft. $81
2017-03-17 Single Family Traditional 15923 Abberton Hill Dr Spring, TX 77379 $330,000 3,435 sq. ft. 7,841 sq. ft. $96
2017-03-17 Single Family Traditional 3310 Candlepine Dr Spring, TX 77388 $195,000 2,215 sq. ft. 6,098 sq. ft. $88
2017-03-17 Single Family Traditional 20334 Evergreen Springs Ln Spring, TX 77379 $319,900 2,774 sq. ft. 10,454 sq. ft. $115
2017-03-17 Single Family Traditional 21522 Canvasback Glen Ct Spring, TX 77388 $225,000 2,900 sq. ft. 7,405 sq. ft. $78
2017-03-17 Single Family Traditional 22302 Sumac Ln Spring, TX 77389 $235,000 1,686 sq. ft. 35,284 sq. ft. $139
2017-03-17 Single Family Traditional 28507 Benders Dock Ct Spring, TX 77386 $449,900 2,980 sq. ft. 43,560 sq. ft. $151
2017-03-17 Single Family Traditional 9018 Memorial Pines Way Spring, TX 77379 $250,000 2,748 sq. ft. 8,276 sq. ft. $91
2017-03-17 Single Family Traditional 2315 Walnut Fair Ln Spring, TX 77373 $109,997 1,116 sq. ft. 3,049 sq. ft. $99
2017-03-17 Single Family Victorian 5523 Woodville Ln Spring, TX 77379 $204,000 2,671 sq. ft. 12,632 sq. ft. $76
2017-03-17 Single Family Traditional 16023 Stewarts Grove Drive Spring, TX 77379 $560,000 6,362 sq. ft. 12,197 sq. ft. $88
2017-03-17 Single Family Colonial 19623 Teller Blv Spring, TX 77388 $289,000 3,006 sq. ft. 9,148 sq. ft. $96
2017-03-17 Single Family Traditional 18635 Minden Oaks Dr Spring, TX 77388 $349,999 3,240 sq. ft. 7,841 sq. ft. $108
2017-03-17 Single Family Traditional 9215 Grandview Park Dr Spring, TX 77379 $168,000 1,686 sq. ft. 7,405 sq. ft. $100
2017-03-17 Single Family Traditional 23322 Pine Post Ln Spring, TX 77373 $120,000 1,822 sq. ft. 6,970 sq. ft. $66
2017-03-17 Single Family Traditional 27214 Terra Run Ct Spring, TX 77386 $1,050,000 4,936 sq. ft. 50,094 sq. ft. $213
2017-03-17 Single Family Traditional 5599 Bright Timber Landing Dr Spring, TX 77386 $539,900 3,792 sq. ft. 22,651 sq. ft. $142
2017-03-17 Single Family Traditional 21726 Tatton Crest Ct Spring, TX 77388 $354,375 3,960 sq. ft. 9,583 sq. ft. $89
2017-03-17 Single Family Traditional 6407 Sparrows Glen Spring, TX 77379 $240,000 2,051 sq. ft. 6,534 sq. ft. $117
2017-03-17 Single Family Traditional 3011 Hopeton Dr Spring, TX 77386 $274,900 2,852 sq. ft. 12,197 sq. ft. $96
2017-03-17 Single Family Traditional 1714 Havelock Dr Spring, TX 77386 $190,000 2,000 sq. ft. 13,068 sq. ft. $95
2017-03-17 Single Family Traditional 21819 Catoosa Dr Spring, TX 77388 $182,999 1,614 sq. ft. 5,663 sq. ft. $113
2017-03-17 Single Family Traditional 27370 Pendleton Trace Dr Spring, TX 77386 $334,900 3,205 sq. ft. 7,405 sq. ft. $104
2017-03-16 Single Family Traditional 2565 Hallmark Oak St Spring, TX 77386 $208,000 3,318 sq. ft. 4,792 sq. ft. $63
2017-03-16 Single Family Traditional 2498 Marufo Vega Dr Spring, TX 77386 $299,900 2,770 sq. ft. 7,405 sq. ft. $108
2017-03-16 Single Family Traditional 24327 Kingbriar Dr Spring, TX 77373 $196,000 2,046 sq. ft. 6,098 sq. ft. $96
2017-03-16 Single Family Traditional 24702 Courseview Ct Spring, TX 77389 $435,000 3,939 sq. ft. 14,375 sq. ft. $110
2017-03-16 Single Family Traditional 4311 Stoney Heights Ct Spring, TX 77388 $314,990 2,748 sq. ft. 10,890 sq. ft. $115
2017-03-16 Single Family Traditional 20030 Cypresswood Spgs Spring, TX 77373 $250,000 2,545 sq. ft. 5,227 sq. ft. $98
2017-03-16 Single Family Traditional 28538 Lockeridge Farms Dr Spring, TX 77386 $185,975 1,595 sq. ft. 5,663 sq. ft. $117
2017-03-16 Single Family Traditional 415 Spring Lakes Haven Spring, TX 77373 $309,900 3,473 sq. ft. 11,761 sq. ft. $89
2017-03-16 Single Family Traditional 2746 Broad Timbers Drive Spring, TX 77373 $259,990 2,782 sq. ft. $93
2017-03-16 Single Family Traditional 19327 Sanctuary Robin Ln Spring, TX 77388 $430,000 3,556 sq. ft. 10,454 sq. ft. $121
2017-03-16 Single Family Traditional 29627 Legends Green Dr Spring, TX 77386 $199,000 2,362 sq. ft. 6,098 sq. ft. $84
2017-03-16 Single Family Traditional 29486 Ridge Clearing Spring, TX 77386 $211,348 1,779 sq. ft. $119
2017-03-16 Single Family Traditional 8418 Oak Plain Dr Spring, TX 77389 $269,900 2,418 sq. ft. 7,841 sq. ft. $112
2017-03-16 Single Family Traditional 29462 Ridge Clearing Spring, TX 77386 $197,990 1,777 sq. ft. $111
2017-03-16 Single Family Contemporary/Modern 22906 Sugar Bear Dr Spring, TX 77389 $149,900 1,433 sq. ft. 4,356 sq. ft. $105
2017-03-16 Single Family Mediterranean 6807 Pennwell Dr Spring, TX 77389 $1,250,000 6,092 sq. ft. 16,553 sq. ft. $205
2017-03-16 Single Family Traditional 3214 Lockgate Drive Spring, TX 77388 $144,900 1,910 sq. ft. 6,534 sq. ft. $76
2017-03-16 Single Family Traditional 4002 Juniper Ln Spring, TX 77389 $349,900 2,438 sq. ft. 65,340 sq. ft. $144
2017-03-16 Single Family Traditional 6919 Augusta Pines Cove Spring, TX 77389 $779,900 4,709 sq. ft. 19,166 sq. ft. $166
2017-03-16 Single Family Traditional 8307 Lichen Ln Spring, TX 77379 $195,500 2,646 sq. ft. 9,148 sq. ft. $74
2017-03-16 Single Family Traditional 19727 Waverly Park Ln Spring, TX 77379 $154,900 1,562 sq. ft. 9,583 sq. ft. $99
2017-03-16 Single Family Traditional 5235 Preserve Park Dr Spring, TX 77389 $420,000 3,507 sq. ft. 6,970 sq. ft. $120
2017-03-15 Single Family Traditional 20406 Long Cypress Dr Spring, TX 77388 $309,850 3,468 sq. ft. 8,712 sq. ft. $89
2017-03-15 Single Family Traditional 25410 Oakhurst Dr Spring, TX 77386 $325,000 2,258 sq. ft. 16,553 sq. ft. $144
2017-03-15 Single Family Traditional 31303 Mallards Pond Ct Spring, TX 77386 $372,900 3,770 sq. ft. 12,632 sq. ft. $99
2017-03-15 Single Family Traditional 5931 Deleon Trail Dr Spring, TX 77379 $235,000 2,667 sq. ft. 5,663 sq. ft. $88
2017-03-15 Single Family Traditional 30110 Littlecroft Dr Spring, TX 77386 $289,900 3,083 sq. ft. 12,197 sq. ft. $94
2017-03-15 Single Family Traditional 2039 Dalton Trace Spring, TX 77373 $184,900 2,408 sq. ft. 4,356 sq. ft. $77
2017-03-15 Single Family Mediterranean; Spanish 11 Johnathan Landing Ct Spring, TX 77389 $1,700,000 4,630 sq. ft. 14,810 sq. ft. $367
2017-03-15 Single Family Traditional 711 Santa Elena Cyn Spring, TX 77388 $435,000 3,630 sq. ft. 8,276 sq. ft. $120
2017-03-15 Single Family English; Traditional 4174 Falvel Shadow Spring, TX 77388 $185,000 1,390 sq. ft. $133
2017-03-15 Single Family Traditional 7235 Avalon Aqua Way Spring, TX 77379 $325,000 3,423 sq. ft. 7,405 sq. ft. $95
2017-03-15 Single Family Colonial 15 Galleta Ct Spring, TX 77389 $350,000 2,774 sq. ft. 6,970 sq. ft. $126
2017-03-15 Single Family Traditional 4926 Bridgemont Ln Spring, TX 77388 $179,000 2,545 sq. ft. 6,098 sq. ft. $70
2017-03-15 Single Family Traditional 403 Oak Ridge Grove Spring, TX 77386 $252,500 2,845 sq. ft. $89
2017-03-15 Single Family Traditional 8423 Misty Mountain Trail Lane Spring, TX 77389 $239,900 2,105 sq. ft. 6,970 sq. ft. $114
2017-03-15 Single Family Traditional 16503 Dover Mills Dr Spring, TX 77379 $229,000 2,740 sq. ft. 6,098 sq. ft. $84
2017-03-15 Single Family Traditional 8315 Burwood Park Dr Spring, TX 77379 $299,500 2,809 sq. ft. 8,276 sq. ft. $107
2017-03-15 Single Family Mediterranean; Traditional 24811 Pearl Crest Ln Spring, TX 77389 $1,265,000 5,367 sq. ft. 24,394 sq. ft. $236
2017-03-15 Single Family Traditional 19319 Sanctuary Rose Bud Ln Spring, TX 77388 $425,000 3,574 sq. ft. 10,454 sq. ft. $119
2017-03-14 Single Family Traditional 23907 Sawmill Pass Spring, TX 77373 $179,900 2,035 sq. ft. 6,098 sq. ft. $88
2017-03-14 Single Family Ranch; Traditional 4055 Fir Forest Dr Spring, TX 77388 $175,000 1,944 sq. ft. 9,148 sq. ft. $90
2017-03-14 Single Family Traditional 3811 Portside Drive Spring, TX 77388 $324,900 3,378 sq. ft. 8,276 sq. ft. $96
2017-03-14 Single Family Traditional 24103 Skywing Ct Spring, TX 77373 $204,950 2,880 sq. ft. 9,148 sq. ft. $71
2017-03-14 Single Family Traditional 5906 Woodglen Point Spring, TX 77379 $419,550 3,456 sq. ft. 16,553 sq. ft. $121
2017-03-14 Single Family Traditional 9819 Friesian Estates Spring, TX 77379 $429,000 3,774 sq. ft. 8,712 sq. ft. $114
2017-03-14 Single Family Traditional 25215 Pineglen Terrace Dr Spring, TX 77389 $299,900 2,798 sq. ft. 7,405 sq. ft. $107
2017-03-14 Single Family Traditional 22314 Bridgestone Palm Spring, TX 77388 $275,000 3,277 sq. ft. 9,148 sq. ft. $84
2017-03-14 Single Family Traditional 24202 Kingbriar Dr Spring, TX 77373 $159,900 1,722 sq. ft. 6,970 sq. ft. $93
2017-03-14 Single Family Traditional 18 Mariscal Pl Spring, TX 77389 $485,000 3,021 sq. ft. 10,019 sq. ft. $161
2017-03-14 Single Family Traditional 5603 Glenfield Spring Spring, TX 77389 $279,000 2,217 sq. ft. 6,098 sq. ft. $126
2017-03-14 Single Family Traditional 5919 Pinelake Crossing Dr Spring, TX 77379 $369,900 3,012 sq. ft. 9,583 sq. ft. $123
2017-03-14 Single Family Traditional 4002 Mrsny Ct Spring, TX 77386 $729,999 4,045 sq. ft. 43,996 sq. ft. $180
2017-03-14 Single Family Traditional 25027 Morris Park Court Spring, TX 77389 $554,000 4,265 sq. ft. 10,454 sq. ft. $130
2017-03-14 Single Family Traditional 22614 Cutter Mill Drive Spring, TX 77389 $332,995 2,927 sq. ft. $114
2017-03-14 Single Family Traditional 30522 Winlock Trails Dr Spring, TX 77386 $359,900 4,796 sq. ft. 8,276 sq. ft. $75
2017-03-14 Single Family Traditional 3011 Lockeridge Village Dr Spring, TX 77386 $179,000 1,580 sq. ft. 5,663 sq. ft. $113
2017-03-14 Single Family Contemporary/Modern 23625 Wildwood Green Way Spring, TX 77373 $124,000 1,540 sq. ft. 3,049 sq. ft. $81
2017-03-14 Single Family Traditional 2823 Hadley Springs Spring, TX 77386 $325,000 3,100 sq. ft. 6,970 sq. ft. $105
2017-03-14 Single Family Traditional 6315 Pinyon Trail Dr Spring, TX 77389 $289,900 2,939 sq. ft. 7,841 sq. ft. $99
2017-03-14 Single Family Traditional 19902 Shavon Springs Dr Spring, TX 77388 $235,900 2,329 sq. ft. 8,276 sq. ft. $101
2017-03-14 Single Family Ranch 17319 Modbury St Spring, TX 77379 $184,900 1,863 sq. ft. 6,534 sq. ft. $99
2017-03-14 Single Family Traditional 7611 Sands Terrace Ln Spring, TX 77389 $389,000 2,947 sq. ft. 6,970 sq. ft. $132
2017-03-14 Single Family Mediterranean; Spanish 34 Norlund Way Spring, TX 77382 $2,988,830 7,202 sq. ft. 43,996 sq. ft. $415
2017-03-14 Single Family Traditional 614 Aulia Ln Spring, TX 77386 $202,000 1,983 sq. ft. 4,356 sq. ft. $102
2017-03-13 Single Family Traditional 29650 Legends Green Spring, TX 77386 $230,000 3,524 sq. ft. 7,405 sq. ft. $65
2017-03-13 Single Family Traditional 18422 Forest Elms Dr Spring, TX 77388 $285,000 2,843 sq. ft. 9,583 sq. ft. $100
2017-03-13 Single Family Traditional 22719 Briarcreek Blvd Spring, TX 77373 $189,900 2,300 sq. ft. 8,712 sq. ft. $83
2017-03-13 Single Family Traditional 24018 Holleygate Ct Spring, TX 77373 $164,000 1,651 sq. ft. 6,098 sq. ft. $99
2017-03-13 Single Family Traditional 4911 Edgegate Dr Spring, TX 77373 $179,900 2,781 sq. ft. 6,534 sq. ft. $65
2017-03-13 Single Family Ranch 2414 Rolling Glen Spring, TX 77373 $134,900 1,788 sq. ft. $75
2017-03-13 Single Family Traditional 16323 Perry Pass Ct Spring, TX 77379 $474,900 4,225 sq. ft. 16,553 sq. ft. $112
2017-03-13 Single Family French; Traditional 4007 N. Rondelet Dr Spring, TX 77386 $1,199,500 4,906 sq. ft. 43,560 sq. ft. $244
2017-03-13 Single Family Traditional 1019 Cooper Springs Spring, TX 77373 $190,000 2,294 sq. ft. 6,534 sq. ft. $83
2017-03-13 Single Family Traditional 7242 Lake Paloma Trl Spring, TX 77389 $875,000 4,824 sq. ft. 18,295 sq. ft. $181
2017-03-13 Single Family Traditional 8231 Redchurch Dr Spring, TX 77379 $379,900 3,661 sq. ft. 10,019 sq. ft. $104
2017-03-13 Single Family Traditional 2510 Laureldale Park Ln Spring, TX 77386 $299,900 2,817 sq. ft. 10,454 sq. ft. $106
2017-03-13 Single Family Traditional 22206 Bridgestone Pine Ct Spring, TX 77388 $299,900 4,222 sq. ft. 6,970 sq. ft. $71
2017-03-13 Single Family Mediterranean 25603 Windy Isle Court Spring, TX 77389 $629,900 4,023 sq. ft. 20,909 sq. ft. $157
2017-03-13 Single Family Traditional 19819 Tidy Tips Ln Spring, TX 77379 $358,900 3,409 sq. ft. 9,148 sq. ft. $105
2017-03-13 Single Family Traditional 30434 Sunset Falls Dr Spring, TX 77386 $249,900 2,784 sq. ft. 7,841 sq. ft. $90
2017-03-13 Single Family Traditional 8402 Timberwilde Dr Spring, TX 77389 $92,000 1,568 sq. ft. 11,326 sq. ft. $59
2017-03-13 Single Family Traditional 18606 Richland Falls Lane Spring, TX 77379 $264,900 2,403 sq. ft. 8,712 sq. ft. $110
2017-03-13 Single Family Traditional 5810 Stratton Woods Dr Spring, TX 77389 $574,950 4,569 sq. ft. 11,761 sq. ft. $126
2017-03-13 Single Family Traditional 6606 Stoney River Dr Spring, TX 77379 $249,900 3,338 sq. ft. 19,602 sq. ft. $75
2017-03-13 Single Family Traditional 17311 Center Court Circle Spring, TX 77379 $465,000 5,148 sq. ft. 8,712 sq. ft. $90
2017-03-13 Single Family Traditional 1011 Compass Cove Cir Spring, TX 77379 $269,900 2,435 sq. ft. 6,970 sq. ft. $111
2017-03-13 Single Family Traditional 22514 Spring Crossing Dr Spring, TX 77373 $180,000 2,501 sq. ft. 4,792 sq. ft. $72
2017-03-13 Single Family Traditional 4218 Hidden Winds Dr Spring, TX 77386 $754,900 4,929 sq. ft. 44,431 sq. ft. $153
2017-03-12 Single Family Traditional 2606 Elm Crossing Trl Spring, TX 77386 $184,900 2,144 sq. ft. 5,227 sq. ft. $86
2017-03-12 Single Family Traditional 29714 Buffalo Canyon Dr Spring, TX 77386 $182,500 1,872 sq. ft. 3,485 sq. ft. $97
2017-03-12 Single Family Traditional 2903 Lockeridge Bend Dr Spring, TX 77386 $198,900 1,680 sq. ft. 6,098 sq. ft. $118
2017-03-12 Single Family Traditional 23202 Sawmill Cross Ln Spring, TX 77373 $230,000 3,032 sq. ft. 12,632 sq. ft. $76
2017-03-12 Single Family Traditional 3818 Waterbend Cv Spring, TX 77386 $1,099,000 5,599 sq. ft. 43,560 sq. ft. $196
2017-03-12 Single Family Traditional 6807 Pinehearth Ct Spring, TX 77379 $444,900 4,522 sq. ft. 10,454 sq. ft. $98
2017-03-12 Single Family Traditional 2119 Melanie Park Dr Spring, TX 77388 $197,000 2,579 sq. ft. 6,970 sq. ft. $76
2017-03-11 Single Family Spanish 18907 Casper Spring, TX 77373 $219,999 2,172 sq. ft. 25,700 sq. ft. $101
2017-03-11 Single Family Traditional 4110 Angling Ln Spring, TX 77386 $579,900 3,717 sq. ft. 45,738 sq. ft. $156
2017-03-11 Single Family Traditional 20219 Evergreen Springs Ln Spring, TX 77379 $340,000 3,479 sq. ft. 9,583 sq. ft. $98
2017-03-11 Single Family Traditional 1114 Pinsonfork Dr Spring, TX 77379 $285,000 2,582 sq. ft. 7,405 sq. ft. $110
2017-03-11 Single Family Ranch 28503 Rose Vervain Dr Spring, TX 77386 $397,900 3,182 sq. ft. 8,712 sq. ft. $125
2017-03-11 Single Family Traditional 30815 Academy Trace Dr Spring, TX 77386 $332,000 3,967 sq. ft. 8,712 sq. ft. $84
2017-03-10 Single Family Traditional 17714 Mellow Ridge Dr Spring, TX 77379 $178,999 2,200 sq. ft. 6,970 sq. ft. $81
2017-03-10 Single Family Traditional 2650 Blue Vervain Dr Spring, TX 77386 $279,900 2,331 sq. ft. 8,276 sq. ft. $120
2017-03-10 Single Family Traditional 9618 Godstone Ln Spring, TX 77379 $329,500 3,002 sq. ft. 10,019 sq. ft. $110
2017-03-10 Single Family Contemporary/Modern 23015 Elephant Walk St Spring, TX 77389 $219,000 2,598 sq. ft. 16,553 sq. ft. $84
2017-03-10 Single Family Traditional 8302 Teakwood Forest Dr Spring, TX 77379 $200,000 2,153 sq. ft. 11,761 sq. ft. $93
2017-03-10 Single Family Traditional 19718 Leemyers Ln Spring, TX 77388 $195,000 1,784 sq. ft. 8,276 sq. ft. $109
2017-03-10 Single Family Traditional 31115 Silverwood Oaks Ct Spring, TX 77386 $305,000 3,863 sq. ft. 10,890 sq. ft. $79
2017-03-10 Single Family Traditional 20702 Deauville Drive Spring, TX 77388 $249,900 3,070 sq. ft. 15,682 sq. ft. $81
2017-03-10 Single Family Traditional 7607 Harmony Light Ct Spring, TX 77379 $315,268 2,308 sq. ft. $137
2017-03-10 Single Family Traditional 9134 Edgeloch Spring, TX 77379 $264,000 2,658 sq. ft. 6,970 sq. ft. $99
2017-03-10 Single Family Traditional 27618 Siandra Creek Spring, TX 77386 $889,500 5,155 sq. ft. 43,560 sq. ft. $173
2017-03-10 Single Family Traditional 14 Clovergate Cir Spring, TX 77382 $485,000 4,015 sq. ft. 10,890 sq. ft. $121
2017-03-10 Single Family Traditional 6714 Northcrest Ct Spring, TX 77389 $299,900 3,107 sq. ft. 9,148 sq. ft. $97
2017-03-10 Single Family Traditional 24914 Auburn Bend Dr Spring, TX 77389 $440,000 3,646 sq. ft. 10,019 sq. ft. $121
2017-03-10 Single Family Traditional 27507 Hunter Creek Ct Spring, TX 77386 $1,099,000 5,803 sq. ft. 49,223 sq. ft. $189
2017-03-10 Single Family Ranch 5926 Cypresswood Green Dr Spring, TX 77373 $176,900 2,107 sq. ft. 7,405 sq. ft. $84
2017-03-10 Single Family Traditional 25603 Oakridge Forest Ln Spring, TX 77386 $169,900 1,667 sq. ft. 8,712 sq. ft. $102
2017-03-10 Single Family Mediterranean; Spanish 6 Johnathan Landing Spring, TX 77389 $1,900,000 5,623 sq. ft. 16,117 sq. ft. $338
2017-03-10 Single Family Traditional 30818 Gardenia Trace Dr Spring, TX 77386 $209,000 2,159 sq. ft. 5,227 sq. ft. $97
2017-03-10 Single Family Mediterranean; Traditional 35 Paloma Bend Pl Spring, TX 77389 $1,090,000 4,638 sq. ft. 13,504 sq. ft. $235
2017-03-10 Single Family Other Style 7443 Bethpage Spring, TX 77389 $412,790 3,176 sq. ft. 7,405 sq. ft. $130
2017-03-10 Single Family Other Style 7342 Kearney Hill Spring, TX 77389 $329,952 2,367 sq. ft. 8,276 sq. ft. $139
2017-03-10 Single Family Traditional 5530 Silent Timber Spring, TX 77386 $575,000 3,632 sq. ft. $158
2017-03-10 Single Family Other Style 8935 Leaning Hollow Spring, TX 77379 $324,032 3,036 sq. ft. 6,534 sq. ft. $107
2017-03-10 Single Family Traditional 6115 Schaumburg Dr Spring, TX 77388 $209,000 2,331 sq. ft. 5,663 sq. ft. $90
2017-03-10 Single Family Traditional 20111 Gunters Ridge Dr Spring, TX 77379 $259,900 2,633 sq. ft. 10,019 sq. ft. $99
2017-03-10 Single Family Traditional 20815 Rose Crossing Spring, TX 77379 $275,000 3,384 sq. ft. 6,534 sq. ft. $81
2017-03-09 Single Family Traditional 5127 Temple Bell Drive Spring, TX 77388 $172,900 2,240 sq. ft. 6,534 sq. ft. $77
2017-03-09 Single Family Traditional 87 Spincaster Ct Spring, TX 77389 $725,000 4,409 sq. ft. 14,810 sq. ft. $164
2017-03-09 Single Family Traditional 506 Savannah Springs Way Spring, TX 77373 $274,900 2,862 sq. ft. 9,148 sq. ft. $96
2017-03-09 Single Family Traditional 607 Linden Manor Ct Spring, TX 77373 $211,000 2,710 sq. ft. 16,553 sq. ft. $78
2017-03-09 Single Family Traditional 16514 Kleinwood Dr Spring, TX 77379 $184,900 2,632 sq. ft. 9,148 sq. ft. $70
2017-03-09 Single Family Traditional 79 Timberspire Ln Spring, TX 77380 $219,000 1,974 sq. ft. 6,098 sq. ft. $111
2017-03-09 Single Family Traditional 9611 Dornoch Dr Spring, TX 77379 $165,000 2,227 sq. ft. 6,970 sq. ft. $74
2017-03-09 Single Family Traditional 510 Tanguey Ct Spring, TX 77388 $286,900 2,846 sq. ft. 12,632 sq. ft. $101
2017-03-09 Single Family Traditional 6710 Auburn Jewel Spring, TX 77389 $549,900 4,015 sq. ft. 11,326 sq. ft. $137
2017-03-09 Single Family Traditional 123 Spring Lakes Haven Spring, TX 77373 $350,000 3,720 sq. ft. 10,890 sq. ft. $94
2017-03-09 Single Family Traditional 16203 Lobo Ln Spring, TX 77379 $499,000 3,507 sq. ft. $142
2017-03-09 Single Family Traditional 18606 Arlan Lake Dr Spring, TX 77388 $415,000 3,385 sq. ft. 10,454 sq. ft. $123
2017-03-09 Single Family Traditional 16222 Morningbrook Drive Spring, TX 77379 $289,900 3,299 sq. ft. 17,860 sq. ft. $88
2017-03-09 Single Family Traditional 21418 Slippery Creek Ln Spring, TX 77388 $157,000 1,858 sq. ft. 6,970 sq. ft. $84
2017-03-09 Single Family Traditional 18406 Bent Elm Dr Spring, TX 77388 $159,999 1,629 sq. ft. 9,148 sq. ft. $98
2017-03-09 Single Family Mediterranean; Traditional 3815 Dortmund Spring, TX 77386 $539,900 4,581 sq. ft. 9,583 sq. ft. $118
2017-03-09 Single Family Traditional 1023 Cooper Springs Dr Spring, TX 77373 $219,900 3,066 sq. ft. 6,534 sq. ft. $72
2017-03-09 Single Family Traditional 2506 Montana Blue Dr Spring, TX 77373 $165,000 2,132 sq. ft. 5,663 sq. ft. $77
2017-03-09 Single Family Traditional 23 Fernglen Spring, TX 77380 $749,900 4,811 sq. ft. $156
2017-03-09 Single Family Traditional 3626 Vashon Ln Spring, TX 77388 $595,000 4,406 sq. ft. 16,988 sq. ft. $135
2017-03-09 Single Family Traditional 1627 Calmar Dr Spring, TX 77386 $295,000 3,416 sq. ft. 8,276 sq. ft. $86
2017-03-09 Single Family Traditional 24807 Rock Hollow Ln Spring, TX 77389 $895,000 4,458 sq. ft. 13,504 sq. ft. $201
2017-03-09 Single Family Traditional 21123 Albany Park Ln Spring, TX 77379 $299,900 2,879 sq. ft. 7,405 sq. ft. $104
2017-03-09 Single Family Traditional 19911 Ravens Thorpe Lane Spring, TX 77379 $430,995 3,304 sq. ft. 8,712 sq. ft. $130
2017-03-09 Single Family Other Style 8927 Leaning Hollow Spring, TX 77379 $358,990 3,186 sq. ft. 8,276 sq. ft. $113
2017-03-09 Single Family Traditional 6250 Warwick Garden Lane Spring, TX 77379 $323,995 3,075 sq. ft. 8,712 sq. ft. $105
2017-03-09 Single Family Traditional 22702 Green Square Ct Spring, TX 77373 $197,000 2,597 sq. ft. 6,970 sq. ft. $76
2017-03-09 Single Family Traditional 21322 Bella Dulce Ct Spring, TX 77379 $169,600 2,619 sq. ft. 5,663 sq. ft. $65
2017-03-09 Single Family Traditional 16022 Kinmont Court Spring, TX 77379 $459,900 4,207 sq. ft. 10,890 sq. ft. $109
2017-03-09 Single Family Traditional 6814 Crimson Grove Dr Spring, TX 77389 $512,000 4,438 sq. ft. 12,197 sq. ft. $115
2017-03-09 Single Family Traditional 3010 Spring Creek Spring, TX 77373 $434,900 2,468 sq. ft. $176
2017-03-09 Single Family Traditional 6914 Wimbledon Estates Dr Spring, TX 77379 $221,900 2,675 sq. ft. 9,583 sq. ft. $83
2017-03-09 Single Family Traditional 20315 Cannaberry Way Spring, TX 77388 $220,000 2,652 sq. ft. 8,276 sq. ft. $83
2017-03-09 Single Family Traditional 27510 Macy Hills Ct Spring, TX 77386 $209,900 1,906 sq. ft. 6,098 sq. ft. $110
2017-03-09 Single Family Traditional 8202 Hideaway Ct Spring, TX 77389 $350,000 4,538 sq. ft. 15,246 sq. ft. $77
2017-03-09 Single Family Traditional 5406 Red Oak Ln Spring, TX 77379 $359,900 3,644 sq. ft. 12,197 sq. ft. $99
2017-03-09 Single Family Traditional 2031 Westover Park Cir Spring, TX 77386 $269,900 2,380 sq. ft. 7,841 sq. ft. $113
2017-03-09 Single Family Traditional 6307 Lazy Meadow Way Spring, TX 77386 $965,000 5,803 sq. ft. 42,689 sq. ft. $166
2017-03-09 Single Family Traditional 8115 Edenwood Spring, TX 77389 $384,900 4,658 sq. ft. 10,019 sq. ft. $83
2017-03-09 Single Family Traditional 4103 Country Mill Way Spring, TX 77388 $214,900 2,271 sq. ft. 8,276 sq. ft. $95
2017-03-09 Single Family Traditional 3215 Legends Hill Ct Spring, TX 77386 $168,000 2,030 sq. ft. 5,663 sq. ft. $83
2017-03-08 Single Family Colonial 4343 Countryheights Ct Spring, TX 77388 $239,999 2,595 sq. ft. 10,019 sq. ft. $92
2017-03-08 Single Family Traditional 7730 Carriage Crest Spring, TX 77379 $392,550 3,254 sq. ft. $121
2017-03-08 Single Family Traditional 24926 Auburn Bend Dr Spring, TX 77389 $418,831 4,034 sq. ft. 12,632 sq. ft. $104
2017-03-08 Single Family Mediterranean 26002 Carolina Cherry Ct Spring, TX 77389 $677,500 5,194 sq. ft. 11,761 sq. ft. $130
2017-03-08 Single Family Traditional 8830 Leaning Hollow Ln Spring, TX 77379 $389,900 2,100 sq. ft. $186
2017-03-08 Single Family Traditional 3910 Laverock Rd Spring, TX 77388 $178,900 2,042 sq. ft. 10,890 sq. ft. $88
2017-03-08 Single Family Contemporary/Modern 5510 Harvest Oak Landing Dr Spring, TX 77386 $599,900 3,451 sq. ft. 25,700 sq. ft. $174
2017-03-08 Single Family Traditional 7123 Diamond Falls Ln Spring, TX 77389 $299,900 2,884 sq. ft. 9,583 sq. ft. $104
2017-03-08 Single Family Traditional 21810 Pepperberry Trl Spring, TX 77388 $205,000 2,369 sq. ft. 10,019 sq. ft. $87
2017-03-08 Single Family Traditional 6203 Northway Dr Spring, TX 77389 $294,500 2,758 sq. ft. 14,375 sq. ft. $107
2017-03-08 Single Family Traditional 3 Mohawk Path Pl Spring, TX 77389 $599,900 3,758 sq. ft. 13,939 sq. ft. $160
2017-03-08 Single Family Traditional 43 N Abram Circle Spring, TX 77382 $295,000 2,219 sq. ft. $133
2017-03-08 Single Family Traditional 3706 Primrose Trace Ln Spring, TX 77389 $240,000 2,603 sq. ft. 6,534 sq. ft. $92
2017-03-08 Single Family Traditional 21827 Colter Stone Dr Spring, TX 77388 $245,000 2,865 sq. ft. 6,098 sq. ft. $86
2017-03-08 Single Family Traditional 30319 Stoney Plain Dr Spring, TX 77386 $224,900 2,520 sq. ft. 7,841 sq. ft. $89
2017-03-08 Single Family Traditional 1734 Wickham Reach Spring, TX 77386 $369,000 3,399 sq. ft. $109
2017-03-08 Single Family Traditional 1703 Calmar Dr Spring, TX 77386 $210,000 2,397 sq. ft. 8,276 sq. ft. $88
2017-03-08 Single Family Traditional 4519 Fenway Park Way Spring, TX 77389 $233,000 2,213 sq. ft. 6,098 sq. ft. $105
2017-03-08 Single Family Traditional 3663 Lake Bend Shore Spring, TX 77386 $422,309 3,059 sq. ft. 6,534 sq. ft. $138
2017-03-08 Single Family Traditional 22226 Bridgestone Pine Ct Spring, TX 77388 $298,000 3,866 sq. ft. 6,970 sq. ft. $77
2017-03-08 Single Family Traditional 22206 Warm Terrace Ln Spring, TX 77389 $289,000 2,385 sq. ft. 7,405 sq. ft. $121
2017-03-08 Single Family Traditional 3014 Ivory Forest Ln Spring, TX 77386 $225,000 2,422 sq. ft. 6,970 sq. ft. $93
2017-03-07 Single Family Traditional 6414 Pinewood Heights Dr Spring, TX 77389 $350,000 3,468 sq. ft. $101
2017-03-07 Single Family Traditional 6 Cadence Ct Spring, TX 77389 $620,000 3,858 sq. ft. 19,166 sq. ft. $161
2017-03-07 Single Family Contemporary/Modern 20510 Montecrest Spring, TX 77379 $335,000 2,804 sq. ft. $119
2017-03-07 Single Family Traditional 7307 Capeview Crossing Spring, TX 77379 $420,000 2,849 sq. ft. $147
2017-03-07 Single Family Contemporary/Modern 7315 Capeview Crossing Spring, TX 77379 $436,049 3,402 sq. ft. $128
2017-03-07 Single Family Traditional 2610 Meadowlark Hills Court Spring, TX 77389 $468,900 3,395 sq. ft. 10,019 sq. ft. $138
2017-03-07 Single Family Mediterranean 4911 Lagos Azul Spring, TX 77389 $595,000 3,672 sq. ft. $162
2017-03-07 Single Family Traditional 3714 Park Shadow Ct Spring, TX 77386 $339,900 2,852 sq. ft. 11,761 sq. ft. $119
2017-03-07 Single Family Traditional 16214 Chipstead Drive Spring, TX 77379 $279,000 2,785 sq. ft. 10,019 sq. ft. $100
2017-03-07 Single Family Traditional 21931 Catoosa Dr Spring, TX 77388 $217,000 2,592 sq. ft. 6,098 sq. ft. $84
2017-03-07 Single Family Traditional 20503 Montecrest Circle Spring, TX 77379 $340,000 2,807 sq. ft. $121
2017-03-07 Single Family Traditional 3207 Nickwill Way Spring, TX 77388 $224,000 2,761 sq. ft. 7,405 sq. ft. $81
2017-03-07 Single Family Traditional 5822 Sawyer Bend Lane Spring, TX 77379 $224,900 1,800 sq. ft. 6,970 sq. ft. $125
2017-03-07 Single Family Ranch 2611 Lexington Park Spring, TX 77373 $224,900 2,736 sq. ft. 6,098 sq. ft. $82
2017-03-07 Single Family Traditional 21819 Grassy Hill Ln Spring, TX 77388 $149,999 1,469 sq. ft. 3,920 sq. ft. $102
2017-03-07 Single Family Traditional 27016 Hidden Grove Landing Dr Spring, TX 77386 $785,990 5,059 sq. ft. 43,124 sq. ft. $155
2017-03-07 Single Family Traditional 4806 Woodbury Mill Dr Spring, TX 77389 $257,995 1,899 sq. ft. $136
2017-03-07 Single Family Traditional 5718 Sunset Oak Spring, TX 77379 $435,000 4,604 sq. ft. 11,326 sq. ft. $94
2017-03-07 Single Family Traditional 31558 Ember Trail Ln Spring, TX 77386 $389,900 4,072 sq. ft. 8,276 sq. ft. $96
2017-03-07 Single Family Traditional 6922 Falling Waters Dr Spring, TX 77379 $148,000 2,037 sq. ft. 6,970 sq. ft. $73
2017-03-07 Single Family Traditional 2658 Magnolia Fair Way Spring, TX 77386 $199,900 1,794 sq. ft. 5,227 sq. ft. $111
2017-03-07 Single Family Traditional 6703 Rustling Timbers Ln Spring, TX 77379 $299,999 3,002 sq. ft. 9,148 sq. ft. $100
2017-03-06 Single Family Traditional 29306 Legends Bluff Dr Spring, TX 77386 $169,100 2,696 sq. ft. 9,583 sq. ft. $63
2017-03-06 Single Family Contemporary/Modern 26510 Hillside Drive Spring, TX 77386 $322,500 2,633 sq. ft. 16,117 sq. ft. $122
2017-03-06 Single Family Traditional 10 Bowers Pine Ct Spring, TX 77389 $365,000 1,825 sq. ft. 5,227 sq. ft. $200
2017-03-06 Single Family Traditional 17011 Louetta Green Dr Spring, TX 77379 $196,000 2,300 sq. ft. 4,356 sq. ft. $85
2017-03-06 Single Family Other Style 16915 Spring Creek Oaks Ct Spring, TX 77379 $205,000 2,645 sq. ft. 14,810 sq. ft. $78
2017-03-06 Single Family Traditional 29493 Salem Fields Dr Spring, TX 77386 $264,900 2,886 sq. ft. 6,098 sq. ft. $92
2017-03-06 Single Family Traditional 914 Saginaw Bay Spring, TX 77373 $180,000 2,549 sq. ft. 7,405 sq. ft. $71
2017-03-06 Single Family Traditional 22703 Sunset Glen Spring, TX 77373 $211,990 2,455 sq. ft. $86
2017-03-06 Single Family Traditional 4222 Hidden Winds Spring, TX 77386 $1,050,000 4,954 sq. ft. $212
2017-03-06 Single Family Traditional 17807 High Creek Dr Spring, TX 77379 $295,900 3,897 sq. ft. 8,276 sq. ft. $76
2017-03-06 Single Family Traditional 714 Hillock Bluff Spring, TX 77073 $165,000 2,107 sq. ft. 5,663 sq. ft. $78
2017-03-05 Single Family Traditional 3227 Candlepine Dr Spring, TX 77388 $225,000 2,547 sq. ft. 6,098 sq. ft. $88
2017-03-05 Single Family Traditional 23710 Leblanc Landing Dr Spring, TX 77389 $249,000 2,120 sq. ft. 5,663 sq. ft. $117
2017-03-05 Single Family Traditional 29919 Adobe Falls Spring, TX 77386 $265,000 2,364 sq. ft. 8,276 sq. ft. $112
2017-03-05 Single Family Traditional 25127 Wilderness Rd Spring, TX 77380 $199,000 1,373 sq. ft. 13,939 sq. ft. $145
2017-03-05 Single Family Traditional 25218 Pineglen Terrace Dr Spring, TX 77389 $335,000 3,332 sq. ft. 7,841 sq. ft. $101
2017-03-05 Single Family Traditional 5211 Adria Hills Cir Spring, TX 77389 $230,890 1,864 sq. ft. $124
2017-03-05 Single Family Traditional 20743 Windy Briar Ln Spring, TX 77379 $299,900 3,025 sq. ft. 9,148 sq. ft. $99
2017-03-05 Single Family Other Style 23703 Huron St 269 Spring, TX 77389 $94,900 13,939 sq. ft.
2017-03-04 Single Family Traditional 71 Arbor Camp Cir Spring, TX 77389 $369,500 2,959 sq. ft. 7,841 sq. ft. $125
2017-03-04 Single Family Mediterranean 3607 Smooth Brome Ln Spring, TX 77386 $559,000 4,601 sq. ft. 14,375 sq. ft. $121
2017-03-04 Single Family Traditional 23827 Spring Dane Dr Spring, TX 77373 $219,000 2,841 sq. ft. 7,405 sq. ft. $77
2017-03-04 Single Family Contemporary/Modern 9902 Orangevale Spring, TX 77379 $135,200 1,520 sq. ft. $89
2017-03-04 Single Family Traditional 5519 Glenfield Spring Spring, TX 77389 $230,890 1,864 sq. ft. $124
2017-03-04 Single Family Traditional 25202 Hawthorne Blossom Drive Spring, TX 77389 $297,900 3,285 sq. ft. 10,454 sq. ft. $91
2017-03-04 Single Family Mediterranean 8111 Marshall Falls Spring, TX 77379 $1,190,000 6,514 sq. ft. 15,246 sq. ft. $183
2017-03-04 Single Family Traditional 29511 Legends Glen Dr Spring, TX 77386 $159,900 1,575 sq. ft. 5,227 sq. ft. $102
2017-03-04 Single Family Traditional 719 Clady Dr Spring, TX 77386 $195,000 1,927 sq. ft. 7,841 sq. ft. $101
2017-03-04 Single Family Traditional 3 Millers Rock Ct Spring, TX 77389 $585,000 4,316 sq. ft. 10,454 sq. ft. $136
2017-03-04 Single Family Traditional 1407 Kennoway Park Dr Spring, TX 77379 $475,000 4,243 sq. ft. 15,246 sq. ft. $112
2017-03-04 Single Family Traditional 28307 Lauren Cove Ln Spring, TX 77386 $290,000 2,749 sq. ft. 9,583 sq. ft. $105
2017-03-04 Single Family Traditional 30403 Deleon Fields Dr Spring, TX 77386 $191,000 1,641 sq. ft. 5,663 sq. ft. $116
2017-03-04 Single Family Mediterranean 27507 Whispering Maple Way Spring, TX 77386 $949,900 5,800 sq. ft. 45,738 sq. ft. $164
2017-03-04 Single Family Traditional 24903 Thorton Knolls Dr Spring, TX 77389 $749,000 5,179 sq. ft. 15,682 sq. ft. $145
2017-03-04 Single Family Traditional 17407 Renee Springs Ct Spring, TX 77379 $204,000 1,766 sq. ft. 7,841 sq. ft. $116
2017-03-03 Single Family Traditional 18 Harburly Ct Spring, TX 77379 $699,900 3,901 sq. ft. 13,504 sq. ft. $179
2017-03-03 Single Family Traditional 2722 Barclay Lake Ln Spring, TX 77388 $424,000 3,728 sq. ft. 9,148 sq. ft. $114
2017-03-03 Single Family Traditional 22514 Frassati Way Spring, TX 77389 $230,000 2,007 sq. ft. 9,148 sq. ft. $115
2017-03-03 Single Family Traditional 59 Florham Park Dr Spring, TX 77379 $989,000 6,092 sq. ft. 44,431 sq. ft. $162
2017-03-03 Single Family Traditional 16715 Mackenzie Mesa Dr Spring, TX 77379 $200,000 1,957 sq. ft. 10,019 sq. ft. $102
2017-03-03 Single Family Traditional 23102 Cimber Ln Spring, TX 77373 $149,900 1,678 sq. ft. 8,276 sq. ft. $89
2017-03-03 Single Family Traditional 21010 Coastal Springs Drive Spring, TX 77379 $360,000 3,104 sq. ft. $116
2017-03-03 Single Family Traditional 5802 Moss Point Spring, TX 77379 $279,900 3,450 sq. ft. 14,375 sq. ft. $81
2017-03-03 Single Family Traditional 2707 Morning Leaf Ct Spring, TX 77388 $235,000 2,368 sq. ft. 12,197 sq. ft. $99
2017-03-03 Single Family Traditional 3415 Beech Hill Dr Spring, TX 77388 $245,786 3,176 sq. ft. 9,148 sq. ft. $77
2017-03-03 Single Family Mediterranean 35 Freestone Stream Place Spring, TX 77389 $725,000 4,176 sq. ft. 11,761 sq. ft. $174
2017-03-03 Single Family Traditional 20418 Sweet Louetta Ln Spring, TX 77388 $234,900 3,026 sq. ft. 6,098 sq. ft. $78
2017-03-03 Single Family Traditional 7122 Edwanna Lane Spring, TX 77389 $221,134 1,772 sq. ft. 5,227 sq. ft. $125
2017-03-03 Single Family Traditional 3022 Rustic Gardens Dr Spring, TX 77386 $254,900 2,286 sq. ft. 8,712 sq. ft. $112
2017-03-03 Single Family Traditional 3671 Lake Bend Shore Spring, TX 77386 $459,118 3,646 sq. ft. 6,534 sq. ft. $126
2017-03-03 Single Family Traditional 9403 Appin Falls Dr Spring, TX 77379 $274,000 2,960 sq. ft. 9,583 sq. ft. $93
2017-03-03 Single Family Traditional 23427 Cimber Ln Spring, TX 77373 $149,900 1,542 sq. ft. 6,534 sq. ft. $97
2017-03-03 Single Family Traditional 5475 Harvest Oak Landing Dr Spring, TX 77386 $725,000 4,017 sq. ft. 22,216 sq. ft. $180
2017-03-03 Single Family Traditional 25839 Coyote Springs Spring, TX 77373 $279,500 3,649 sq. ft. 8,276 sq. ft. $77
2017-03-03 Single Family Traditional 9947 Kirkstone Terrace Spring, TX 77379 $399,291 3,367 sq. ft. 8,276 sq. ft. $119
2017-03-03 Single Family Traditional 1002 Alp Springs Ln Spring, TX 77373 $250,000 3,099 sq. ft. 10,890 sq. ft. $81
2017-03-03 Single Family Traditional 9919 Kirkstone Terrace Spring, TX 77379 $399,947 4,020 sq. ft. 8,276 sq. ft. $99
2017-03-03 Single Family Traditional 927 Sierra Springs Ln Spring, TX 77373 $225,950 2,268 sq. ft. 6,098 sq. ft. $100
2017-03-03 Single Family Traditional 2719 Randal Lake Ln Spring, TX 77388 $449,900 3,524 sq. ft. 8,712 sq. ft. $128
2017-03-03 Single Family Traditional 30215 Mesa Valley Dr Spring, TX 77386 $194,500 1,952 sq. ft. 6,098 sq. ft. $100
2017-03-03 Single Family Traditional 4115 Hirschfield Rd Spring, TX 77373 $150,000 1,480 sq. ft. 7,841 sq. ft. $101
2017-03-02 Single Family Traditional 1503 Kennoway Park Spring, TX 77379 $348,000 3,539 sq. ft. 9,148 sq. ft. $98
2017-03-02 Single Family Traditional 6907 River Mill Dr Spring, TX 77379 $164,000 2,110 sq. ft. 7,405 sq. ft. $78
2017-03-02 Single Family Traditional 25510 Mill Pond Ln Spring, TX 77373 $189,900 2,096 sq. ft. 8,276 sq. ft. $91
2017-03-02 Single Family Mediterranean 28406 Rose Vervain Dr Spring, TX 77386 $720,000 4,465 sq. ft. 9,148 sq. ft. $161
2017-03-02 Single Family Traditional 2815 Hadley Springs Ln Spring, TX 77386 $350,000 3,304 sq. ft. 6,970 sq. ft. $106
2017-03-02 Single Family Traditional 25307 Sugar Valley Ln Spring, TX 77373 $169,900 2,110 sq. ft. 9,148 sq. ft. $81
2017-03-02 Single Family Traditional 6614 Bluestone Springs Spring, TX 77379 $189,900 2,226 sq. ft. 5,663 sq. ft. $85
2017-03-02 Single Family Traditional 23315 Preserve Bend Cir Spring, TX 77389 $425,000 3,811 sq. ft. 9,583 sq. ft. $112
2017-03-02 Single Family Traditional 27966 Arden Trail Spring, TX 77386 $399,900 3,395 sq. ft. 7,405 sq. ft. $118
2017-03-02 Single Family Traditional 19211 Country Village Dr Spring, TX 77388 $294,900 3,592 sq. ft. 7,405 sq. ft. $82
2017-03-02 Single Family Traditional 118 Sage Sparrow Cir Spring, TX 77389 $810,000 4,650 sq. ft. 11,326 sq. ft. $174
2017-03-02 Single Family Traditional 27922 Arden Trail Spring, TX 77386 $359,900 2,935 sq. ft. 6,970 sq. ft. $123
2017-03-02 Single Family Traditional 7507 Easybrook Ln Spring, TX 77379 $259,900 3,050 sq. ft. 10,454 sq. ft. $85
2017-03-02 Single Family Traditional 28907 Pecos River Ct Spring, TX 77386 $209,000 2,593 sq. ft. 6,098 sq. ft. $81
2017-03-02 Single Family Traditional 4623 Countrymeadows Dr Spring, TX 77388 $379,777 4,015 sq. ft. 8,276 sq. ft. $95
2017-03-02 Single Family Traditional 3202 Abbott Lakes Ln Spring, TX 77386 $335,000 3,192 sq. ft. 19,602 sq. ft. $105
2017-03-02 Single Family Traditional 622 Timberstand Ln Spring, TX 77373 $209,000 2,551 sq. ft. 7,841 sq. ft. $82
2017-03-02 Single Family Traditional 30110 Nanton Dr Spring, TX 77386 $275,000 3,265 sq. ft. 9,148 sq. ft. $84
2017-03-02 Single Family Traditional 25111 Arcane Ct Spring, TX 77389 $427,700 3,800 sq. ft. 9,583 sq. ft. $113
2017-03-02 Single Family Traditional 2726 Barrington Branch Spring, TX 77373 $282,225 3,577 sq. ft. 8,276 sq. ft. $79
2017-03-02 Single Family Traditional 23411 Azalea Hill Spring, TX 77373 $191,830 1,975 sq. ft. $97
2017-03-02 Single Family Traditional 30518 Mystic Canyon Drive Spring, TX 77386 $280,400 3,307 sq. ft. 6,534 sq. ft. $85
2017-03-02 Single Family Traditional 7606 Kalebs Pond Ct Spring, TX 77389 $1,359,000 5,508 sq. ft. 21,344 sq. ft. $247
2017-03-02 Single Family Traditional 31623 Summit Springs Ln Spring, TX 77386 $259,000 2,433 sq. ft. 6,098 sq. ft. $106
2017-03-02 Single Family Traditional 31423 Brighton Brook Spring, TX 77386 $314,000 3,003 sq. ft. 13,939 sq. ft. $105
2017-03-02 Single Family Traditional 23234 Peerless Dr Spring, TX 77373 $179,900 2,127 sq. ft. 6,098 sq. ft. $85
2017-03-02 Single Family Traditional 3631 Lake Bend Shore Spring, TX 77386 $404,842 3,445 sq. ft. 6,534 sq. ft. $118
2017-03-01 Single Family Traditional 4522 Fenway Park Way Spring, TX 77389 $269,900 2,659 sq. ft. 6,534 sq. ft. $102
2017-03-01 Single Family Traditional 30111 Aldine Westfield Rd Spring, TX 77386 $469,000 4,336 sq. ft. 46,609 sq. ft. $108
2017-03-01 Single Family Traditional 3442 Dawnwood Dr Spring, TX 77380 $235,000 1,944 sq. ft. 8,712 sq. ft. $121
2017-03-01 Single Family Traditional 24006 Spring Sunset Dr Spring, TX 77373 $119,500 2,209 sq. ft. 6,970 sq. ft. $54
2017-03-01 Single Family Traditional 5219 Ashmere Ln Spring, TX 77379 $239,000 2,690 sq. ft. 9,583 sq. ft. $89
2017-03-01 Single Family Traditional 29528 Salem Fields Dr Spring, TX 77386 $240,000 2,351 sq. ft. 6,098 sq. ft. $102
2017-03-01 Single Family Traditional 22810 Carter Gate Dr Spring, TX 77373 $115,000 1,364 sq. ft. 6,534 sq. ft. $84
2017-03-01 Single Family Traditional 51 Bacopa Dr Spring, TX 77389 $980,000 4,386 sq. ft. 23,522 sq. ft. $223
2017-03-01 Single Family Mediterranean 7442 Lake Paloma Trail Spring, TX 77389 $869,900 4,853 sq. ft. 16,988 sq. ft. $179
2017-03-01 Single Family Traditional 23610 Creekview Dr Spring, TX 77389 $279,900 3,361 sq. ft. 12,632 sq. ft. $83
2017-03-01 Single Family Traditional 24919 Abbey Ct Spring, TX 77389 $182,700 2,216 sq. ft. 7,841 sq. ft. $82
2017-03-01 Single Family Traditional 3022 Ribbon Creek Way Spring, TX 77389 $194,000 2,032 sq. ft. 4,356 sq. ft. $95
2017-03-01 Single Family Traditional 20722 Windrose Bend Dr Spring, TX 77379 $419,000 3,982 sq. ft. 10,019 sq. ft. $105
2017-03-01 Single Family Traditional 4106 Tee Tree Ct Spring, TX 77386 $525,000 4,263 sq. ft. 45,738 sq. ft. $123
2017-03-01 Single Family Traditional 7603 Candlelight Park Lane Spring, TX 77379 $393,038 3,443 sq. ft. 9,583 sq. ft. $114
2017-03-01 Single Family Traditional 3202 Linder Green Dr Spring, TX 77386 $309,900 3,561 sq. ft. 8,276 sq. ft. $87
2017-03-01 Single Family Traditional 20211 Cypresswood Glen Dr Spring, TX 77388 $243,500 3,034 sq. ft. 13,504 sq. ft. $80
2017-03-01 Single Family Traditional 4002 Balsam Fir Ln Spring, TX 77386 $699,000 4,139 sq. ft. 45,302 sq. ft. $169
2017-03-01 Single Family Traditional 27723 Geneva Hills Ln Spring, TX 77386 $289,000 3,299 sq. ft. 8,712 sq. ft. $88
2017-03-01 Single Family Mediterranean 14 Highclere Park Dr Spring, TX 77379 $1,700,000 6,865 sq. ft. 67,518 sq. ft. $248
2017-03-01 Single Family Traditional 6611 Butler Oaks Ct Spring, TX 77389 $479,500 3,889 sq. ft. 11,761 sq. ft. $123
2017-03-01 Single Family Traditional 25154 Alina Ln Spring, TX 77386 $205,000 1,930 sq. ft. 3,920 sq. ft. $106
2017-03-01 Single Family Traditional 25255 Piney Heights Ln Spring, TX 77389 $379,900 4,617 sq. ft. $82
2017-03-01 Single Family Traditional 17802 Surreywest Ln Spring, TX 77379 $237,500 2,498 sq. ft. 8,712 sq. ft. $95
2017-03-01 Single Family Traditional 28923 Birch Green Way Spring, TX 77386 $215,000 3,240 sq. ft. 5,227 sq. ft. $66
2017-03-01 Single Family Traditional 17622 Tall Cypress Dr Spring, TX 77388 $239,000 3,122 sq. ft. 10,454 sq. ft. $77
2017-03-01 Single Family Contemporary/Modern 8802 Cypresswood Spring, TX 77379 $1,350,000 8,670 sq. ft. 42,253 sq. ft. $156
2017-03-01 Single Family Traditional 3322 La Seine Spring, TX 77388 $215,000 2,321 sq. ft. 6,534 sq. ft. $93
2017-03-01 Single Family Traditional 21107 Mandarin Glen Cir Spring, TX 77388 $242,000 3,260 sq. ft. 7,405 sq. ft. $74
2017-03-01 Single Family Traditional 31026 Autumn Canyon Ln Spring, TX 77386 $390,600 4,242 sq. ft. 11,326 sq. ft. $92
2017-03-01 Single Family Traditional 25203 Summer Chase Dr Spring, TX 77389 $498,000 3,869 sq. ft. 11,326 sq. ft. $129
2017-03-01 Single Family Traditional 4219 Chestergate Dr Spring, TX 77373 $134,600 1,496 sq. ft. 6,534 sq. ft. $90
2017-02-28 Single Family Ranch 5502 White Birch Run Spring, TX 77386 $1,290,000 5,456 sq. ft. 90,169 sq. ft. $236
2017-02-28 Single Family Traditional 6210 Pecan Leaf Dr Spring, TX 77379 $269,000 2,885 sq. ft. 10,454 sq. ft. $93
2017-02-28 Single Family Traditional 4814 Owens Creek Ln Spring, TX 77388 $159,500 2,314 sq. ft. 7,405 sq. ft. $69
2017-02-28 Single Family Traditional 3884 Ponderosa Peak Drive Spring, TX 77386 $349,990 3,197 sq. ft. $109
2017-02-28 Single Family Traditional 27946 Arden Trail Drive Spring, TX 77386 $346,990 2,981 sq. ft. $116
2017-02-28 Single Family Traditional 27930 Arden Trail Drive Spring, TX 77386 $299,990 2,248 sq. ft. $133
2017-02-28 Single Family Traditional 31230 Lakeview Bend Ln Spring, TX 77386 $489,900 4,911 sq. ft. 11,326 sq. ft. $100
2017-02-28 Single Family Traditional 5914 Capella Park Dr Spring, TX 77379 $260,000 2,819 sq. ft. 7,405 sq. ft. $92
2017-02-28 Single Family Traditional 21414 Golden Dove Ln Spring, TX 77388 $175,000 1,867 sq. ft. 7,841 sq. ft. $94
2017-02-28 Single Family Traditional 4007 Amberlee Spring, TX 77386 $877,000 5,310 sq. ft. 52,272 sq. ft. $165
2017-02-28 Single Family Traditional 28719 Fox Run Blvd Spring, TX 77386 $169,900 2,230 sq. ft. 7,841 sq. ft. $76
2017-02-28 Single Family Traditional 24026 Bridge Way Spring, TX 77389 $462,000 4,015 sq. ft. 9,583 sq. ft. $115
2017-02-28 Single Family Traditional 915 Chapwood Ct Spring, TX 77373 $187,900 2,480 sq. ft. 5,663 sq. ft. $76
2017-02-28 Single Family Traditional 31066 Timber Bend Spring, TX 77386 $283,369 2,201 sq. ft. 7,405 sq. ft. $129
2017-02-28 Single Family Traditional 17719 Windy Point Dr Spring, TX 77379 $174,900 2,227 sq. ft. 6,970 sq. ft. $79
2017-02-28 Single Family Traditional 2019 Wickburn Dr Spring, TX 77386 $174,900 1,674 sq. ft. 6,970 sq. ft. $104
2017-02-28 Single Family Traditional 20627 Sundance Springs Ln Spring, TX 77379 $615,000 4,622 sq. ft. 13,939 sq. ft. $133
2017-02-28 Single Family Traditional 21522 Kingston Terrace Ln Spring, TX 77379 $220,000 3,510 sq. ft. 6,534 sq. ft. $63
2017-02-28 Single Family Traditional 29002 Comal Karst Dr Spring, TX 77386 $335,000 3,628 sq. ft. 10,019 sq. ft. $92
2017-02-28 Single Family Contemporary/Modern 7047 Bristol Memorial Drive Spring, TX 77379 $264,000 2,591 sq. ft. 5,663 sq. ft. $102
2017-02-28 Single Family Traditional 6202 Laver Love Dr Spring, TX 77379 $449,900 4,786 sq. ft. 12,632 sq. ft. $94
2017-02-28 Single Family Traditional 20729 Marilyn Lane Spring, TX 77388 $179,000 1,805 sq. ft. 10,019 sq. ft. $99
2017-02-28 Single Family Traditional 28031 Hallimore Dr Spring, TX 77386 $345,000 3,401 sq. ft. 7,405 sq. ft. $101
2017-02-28 Single Family Traditional 3202 Rose Quartz Ln Spring, TX 77388 $183,900 1,809 sq. ft. 6,098 sq. ft. $102
2017-02-27 Single Family Traditional 2214 Dawn Wind Ln Spring, TX 77386 $313,000 2,799 sq. ft. 8,276 sq. ft. $112
2017-02-27 Single Family Traditional 17431 Victoria Lakes Cir Spring, TX 77379 $699,000 6,169 sq. ft. 25,265 sq. ft. $113
2017-02-27 Single Family Traditional 11 Townsend Place Spring, TX 77382 $365,000 2,780 sq. ft. 9,148 sq. ft. $131
2017-02-27 Single Family Traditional 22 Crystal Canyon Pl Spring, TX 77389 $645,500 4,060 sq. ft. 7,841 sq. ft. $159
2017-02-27 Single Family Traditional 22511 Parsonsgate Dr Spring, TX 77373 $139,900 1,446 sq. ft. 6,534 sq. ft. $97
2017-02-27 Single Family Traditional 24430 Newcastle Bay Trail Spring, TX 77389 $300,890 3,426 sq. ft. $88
2017-02-27 Single Family Traditional 18415 Brackenfield Spring, TX 77388 $210,000 2,610 sq. ft. 9,148 sq. ft. $80
2017-02-27 Single Family Traditional 25206 Carrick Bend Dr Spring, TX 77389 $490,000 3,951 sq. ft. 13,068 sq. ft. $124
2017-02-27 Single Family Traditional 24502 Corbridge Creek Ct Spring, TX 77389 $264,890 2,446 sq. ft. $108
2017-02-27 Single Family Traditional 3119 Felton Springs Dr Spring, TX 77386 $284,900 3,612 sq. ft. 7,841 sq. ft. $79